Time;durP1;ratioP1;P1;durP2;ratioP2;P2;SDS_P1;SDS_P2;PMS_P1;PMS_P2;Temp;Humidity;BMP_temperature;BMP_pressure;BME280_temperature;BME280_humidity;BME280_pressure;Samples;Min_cycle;Max_cycle;Signal;HPM_P1;HPM_P2
2022/09/10 00:01:13;;;;;;;9.15;2.60;;;;;;;;;;5109268;28;20066;-90
2022/09/10 00:03:39;;;;;;;9.77;2.30;;;;;;;;;;5110533;28;20004;-88
2022/09/10 00:06:07;;;;;;;10.93;2.40;;;15.90;99.90;;;;;;5110230;28;20020;-88
2022/09/10 00:08:33;;;;;;;8.20;2.30;;;;;;;;;;5102847;28;20463;-89
2022/09/10 00:11:03;;;;;;;12.93;2.40;;;16.00;99.90;;;;;;5094196;28;20024;-94
2022/09/10 00:13:29;;;;;;;11.02;2.88;;;;;;;;;;5090602;28;20107;-90
2022/09/10 00:15:56;;;;;;;8.45;2.63;;;;;;;;;;5090535;28;20020;-89
2022/09/10 00:18:22;;;;;;;10.52;2.60;;;;;;;;;;5091400;28;20020;-94
2022/09/10 00:20:51;;;;;;;8.18;2.22;;;15.80;99.90;;;;;;5090283;28;20510;-93
2022/09/10 00:23:18;;;;;;;15.32;2.78;;;15.80;99.90;;;;;;5090141;28;20029;-93
2022/09/10 00:25:48;;;;;;;10.35;2.67;;;15.70;99.90;;;;;;5088854;28;20027;-89
2022/09/10 00:28:15;;;;;;;10.77;2.53;;;15.70;99.90;;;;;;5090306;28;20032;-95
2022/09/10 00:30:46;;;;;;;13.05;3.03;;;15.90;99.90;;;;;;5089944;28;20058;-96
2022/09/10 00:33:16;;;;;;;15.82;2.60;;;15.80;99.90;;;;;;5089411;28;20512;-94
2022/09/10 00:35:42;;;;;;;17.70;3.30;;;;;;;;;;5090465;28;20089;-90
2022/09/10 00:38:09;;;;;;;9.88;2.50;;;15.90;99.90;;;;;;5088924;28;20035;-94
2022/09/10 00:40:36;;;;;;;8.05;2.40;;;15.80;99.90;;;;;;5090178;28;20077;-94
2022/09/10 00:43:02;;;;;;;7.93;2.28;;;;;;;;;;5090159;28;20028;-89
2022/09/10 00:45:32;;;;;;;9.65;2.38;;;15.90;99.90;;;;;;5091919;28;20020;-93
2022/09/10 00:48:06;;;;;;;8.27;2.28;;;15.90;99.90;;;;;;5093201;28;20051;-94
2022/09/10 00:50:37;;;;;;;11.02;3.35;;;15.70;99.90;;;;;;5094019;28;20028;-90
2022/09/10 00:53:09;;;;;;;12.65;2.70;;;15.70;99.90;;;;;;5094291;28;20027;-93
2022/09/10 00:55:38;;;;;;;9.95;2.47;;;15.70;99.90;;;;;;5094319;28;20031;-91
2022/09/10 00:58:11;;;;;;;6.28;2.53;;;15.60;99.90;;;;;;5092751;28;20384;-94
2022/09/10 01:00:39;;;;;;;7.55;2.42;;;15.60;99.90;;;;;;5092403;28;20507;-94
2022/09/10 01:03:10;;;;;;;9.77;2.60;;;15.50;99.90;;;;;;5093788;28;20020;-95
2022/09/10 01:05:37;;;;;;;13.63;2.58;;;;;;;;;;5092844;28;20032;-94
2022/09/10 01:08:03;;;;;;;12.88;2.90;;;;;;;;;;5093650;28;20099;-89
2022/09/10 01:10:36;;;;;;;16.88;2.58;;;15.40;99.90;;;;;;5093724;28;20024;-91
2022/09/10 01:13:35;;;;;;;11.52;2.80;;;15.50;99.90;;;;;;5092488;28;20057;-95
2022/09/10 01:16:23;;;;;;;17.90;3.15;;;15.70;99.90;;;;;;5093910;28;20443;-91
2022/09/10 01:19:25;;;;;;;13.30;2.43;;;15.40;99.90;;;;;;5094055;28;20479;-89
2022/09/10 01:22:02;;;;;;;9.93;2.30;;;15.70;99.90;;;;;;5093706;28;20036;-94
2022/09/10 01:24:42;;;;;;;18.97;3.20;;;16.20;99.90;;;;;;5092225;28;20043;-89
2022/09/10 01:27:08;;;;;;;8.63;2.45;;;;;;;;;;5094071;28;20025;-94
2022/09/10 01:29:57;;;;;;;7.75;2.90;;;15.40;99.90;;;;;;5093283;28;20038;-94
2022/09/10 01:32:48;;;;;;;17.60;3.10;;;16.20;99.90;;;;;;5094270;28;20021;-94
2022/09/10 01:35:15;;;;;;;11.18;2.58;;;15.70;99.90;;;;;;5093285;28;20034;-94
2022/09/10 01:37:47;;;;;;;11.48;2.67;;;15.60;99.90;;;;;;5092771;28;20078;-94
2022/09/10 01:40:16;;;;;;;16.65;3.05;;;15.50;99.90;;;;;;5093202;28;20097;-95
2022/09/10 01:42:42;;;;;;;8.88;2.60;;;;;;;;;;5093539;28;20032;-90
2022/09/10 01:45:13;;;;;;;11.48;2.72;;;15.50;99.90;;;;;;5092217;28;20016;-93
2022/09/10 01:48:14;;;;;;;12.88;3.10;;;15.50;99.90;;;;;;5093301;28;20054;-94
2022/09/10 01:50:59;;;;;;;9.75;2.28;;;15.40;99.90;;;;;;5069383;28;20555;-94
2022/09/10 01:53:26;;;;;;;16.60;2.80;;;;;;;;;;5092783;28;20021;-95
2022/09/10 01:56:26;;;;;;;12.57;2.58;;;15.30;99.90;;;;;;5092930;28;20491;-94
2022/09/10 01:58:59;;;;;;;20.27;3.10;;;15.30;99.90;;;;;;5093212;28;20020;-88
2022/09/10 02:01:27;;;;;;;10.43;2.78;;;15.40;99.90;;;;;;5094134;28;20032;-94
2022/09/10 02:03:58;;;;;;;22.70;3.45;;;15.30;99.90;;;;;;5092753;28;20027;-95
2022/09/10 02:06:28;;;;;;;15.98;2.47;;;15.30;99.90;;;;;;5093656;28;20404;-94
2022/09/10 02:08:57;;;;;;;10.10;2.33;;;15.40;99.90;;;;;;5091456;28;20035;-92
2022/09/10 02:11:23;;;;;;;14.00;2.65;;;;;;;;;;5092718;28;20020;-88
2022/09/10 02:13:49;;;;;;;15.25;2.85;;;;;;;;;;5092349;28;20425;-95
2022/09/10 02:16:32;;;;;;;13.75;2.97;;;15.30;99.90;;;;;;5091992;28;20020;-94
2022/09/10 02:18:59;;;;;;;14.82;2.28;;;15.30;99.90;;;;;;5092296;28;20035;-94
2022/09/10 02:21:25;;;;;;;13.57;2.67;;;15.10;99.90;;;;;;5093252;28;20028;-91
2022/09/10 02:23:58;;;;;;;18.90;3.00;;;15.40;99.90;;;;;;5092400;28;20098;-94
2022/09/10 02:26:25;;;;;;;9.32;2.72;;;;;;;;;;5092906;28;20051;-94
2022/09/10 02:28:52;;;;;;;13.15;2.83;;;;;;;;;;5091491;28;20503;-93
2022/09/10 02:31:18;;;;;;;11.82;2.70;;;15.30;99.90;;;;;;5092594;28;20024;-94
2022/09/10 02:33:44;;;;;;;13.77;2.88;;;;;;;;;;5092360;28;20031;-88
2022/09/10 02:36:10;;;;;;;10.18;2.67;;;15.30;99.90;;;;;;5091448;28;20028;-94
2022/09/10 02:38:35;;;;;;;14.63;2.72;;;15.20;99.90;;;;;;5093926;28;20054;-88
2022/09/10 02:41:01;;;;;;;13.35;2.95;;;15.40;99.90;;;;;;5105290;28;20067;-88
2022/09/10 02:43:28;;;;;;;19.60;3.60;;;15.20;99.90;;;;;;5112952;28;20062;-92
2022/09/10 02:45:58;;;;;;;12.25;2.70;;;15.20;99.90;;;;;;5112529;28;20071;-89
2022/09/10 02:48:25;;;;;;;13.88;3.42;;;15.20;99.90;;;;;;5105424;28;20020;-95
2022/09/10 02:50:51;;;;;;;13.35;3.25;;;;;;;;;;5099167;28;20413;-93
2022/09/10 02:53:18;;;;;;;10.75;2.63;;;;;;;;;;5092563;28;20093;-96
2022/09/10 02:55:45;;;;;;;8.48;2.80;;;15.10;99.90;;;;;;5091986;28;20076;-89
2022/09/10 02:58:12;;;;;;;14.07;3.00;;;;;;;;;;5092083;28;20027;-94
2022/09/10 03:00:38;;;;;;;14.30;3.08;;;;;;;;;;5091444;28;20433;-95
2022/09/10 03:03:04;;;;;;;12.35;2.70;;;;;;;;;;5091657;28;20102;-94
2022/09/10 03:05:36;;;;;;;17.90;3.38;;;15.00;99.90;;;;;;5093285;28;20162;-95
2022/09/10 03:08:03;;;;;;;13.68;3.40;;;14.90;99.90;;;;;;5094155;28;20459;-90
2022/09/10 03:10:30;;;;;;;11.43;2.95;;;;;;;;;;5093217;28;20028;-94
2022/09/10 03:12:56;;;;;;;13.13;3.00;;;;;;;;;;5091051;28;20024;-95
2022/09/10 03:15:22;;;;;;;12.23;2.60;;;;;;;;;;5091820;28;20508;-90
2022/09/10 03:17:49;;;;;;;16.00;3.13;;;;;;;;;;5090316;28;20028;-94
2022/09/10 03:20:18;;;;;;;11.70;3.03;;;;;;;;;;5091044;28;20085;-94
2022/09/10 03:22:46;;;;;;;12.80;3.10;;;;;;;;;;5091715;28;20085;-94
2022/09/10 03:25:12;;;;;;;;;;;15.80;99.90;;;;;;5090493;28;20062;-91
2022/09/10 03:27:45;;;;;;;11.68;2.97;;;14.90;99.90;;;;;;5090428;28;19904;-92
2022/09/10 03:30:11;;;;;;;15.05;3.10;;;14.90;99.90;;;;;;5089804;28;20031;-95
2022/09/10 03:32:37;;;;;;;9.57;2.55;;;;;;;;;;5091255;28;20022;-95
2022/09/10 03:35:04;;;;;;;15.77;2.92;;;14.80;99.90;;;;;;5091688;28;20020;-88
2022/09/10 03:37:30;;;;;;;15.98;4.10;;;;;;;;;;5092058;28;20054;-95
2022/09/10 03:39:56;;;;;;;15.10;3.10;;;14.90;99.90;;;;;;5090726;28;20030;-95
2022/09/10 03:42:23;;;;;;;8.85;2.83;;;;;;;;;;5089938;28;20044;-89
2022/09/10 03:44:49;;;;;;;10.02;3.15;;;;;;;;;;5090759;28;20016;-89
2022/09/10 03:47:15;;;;;;;10.80;2.55;;;;;;;;;;5090605;28;20028;-95
2022/09/10 03:49:41;;;;;;;7.55;2.25;;;;;;;;;;5089477;28;20034;-94
2022/09/10 03:52:11;;;;;;;16.98;3.25;;;;;;;;;;5089303;28;20049;-94
2022/09/10 03:54:37;;;;;;;9.82;2.63;;;;;;;;;;5090669;28;20019;-95
2022/09/10 03:57:04;;;;;;;12.00;2.80;;;14.80;99.90;;;;;;5090205;28;20036;-93
2022/09/10 03:59:30;;;;;;;18.00;3.00;;;15.00;99.90;;;;;;5091259;28;20032;-94
2022/09/10 04:01:56;;;;;;;15.32;3.58;;;14.90;99.90;;;;;;5090407;28;20032;-94
2022/09/10 04:04:21;;;;;;;10.88;3.08;;;14.70;99.90;;;;;;5089213;28;20032;-93
2022/09/10 04:06:47;;;;;;;12.63;2.92;;;;;;;;;;5090338;28;20442;-94
2022/09/10 04:09:13;;;;;;;12.60;3.10;;;;;;;;;;5091286;28;20050;-88
2022/09/10 04:11:40;;;;;;;14.98;2.95;;;;;;;;;;5093949;28;20018;-94
2022/09/10 04:14:06;;;;;;;12.68;2.95;;;14.80;99.90;;;;;;5098720;28;20062;-88
2022/09/10 04:16:32;;;;;;;12.73;3.17;;;;;;;;;;5110986;28;20032;-88
2022/09/10 04:18:58;;;;;;;13.27;3.20;;;;;;;;;;5112514;28;20048;-92
2022/09/10 04:21:24;;;;;;;10.65;3.50;;;;;;;;;;5106854;28;20058;-95
2022/09/10 04:23:59;;;;;;;14.63;3.50;;;14.70;99.90;;;;;;5108474;28;20020;-94
2022/09/10 04:26:25;;;;;;;15.30;3.20;;;;;;;;;;5111168;28;20056;-89
2022/09/10 04:28:52;;;;;;;10.20;3.17;;;;;;;;;;5111776;28;20024;-96
2022/09/10 04:31:18;;;;;;;13.73;3.28;;;;;;;;;;5105756;28;20004;-92
2022/09/10 04:33:44;;;;;;;15.48;3.53;;;;;;;;;;5110649;28;20028;-88
2022/09/10 04:36:11;;;;;;;17.33;3.38;;;;;;;;;;5109131;28;20008;-94
2022/09/10 04:38:42;;;;;;;11.32;3.15;;;;;;;;;;5112888;28;20032;-87
2022/09/10 04:41:08;;;;;;;16.23;3.13;;;14.70;99.90;;;;;;5114191;28;20044;-89
2022/09/10 04:43:34;;;;;;;17.20;3.35;;;;;;;;;;5102288;28;20379;-95
2022/09/10 04:46:00;;;;;;;12.30;3.45;;;;;;;;;;5105096;28;20020;-96
2022/09/10 04:48:26;;;;;;;14.43;3.00;;;14.60;99.90;;;;;;5099482;28;20024;-95
2022/09/10 04:50:53;;;;;;;10.80;3.33;;;;;;;;;;5098941;28;20182;-89
2022/09/10 04:53:20;;;;;;;17.35;3.03;;;;;;;;;;5093379;28;20092;-94
2022/09/10 04:55:48;;;;;;;11.40;3.17;;;14.50;99.90;;;;;;5101398;28;20020;-94
2022/09/10 04:58:14;;;;;;;15.63;3.72;;;;;;;;;;5098978;28;20058;-94
2022/09/10 05:00:40;;;;;;;8.23;3.08;;;;;;;;;;5103547;28;20048;-91
2022/09/10 05:03:07;;;;;;;12.38;3.53;;;;;;;;;;5095116;28;20206;-95
2022/09/10 05:05:33;;;;;;;16.35;3.00;;;14.70;99.90;;;;;;5094139;28;20514;-92
2022/09/10 05:08:01;;;;;;;5.43;3.00;;;;;;;;;;5093547;28;20032;-90
2022/09/10 05:10:30;;;;;;;13.48;3.88;;;;;;;;;;5097971;28;20016;-94
2022/09/10 05:12:56;;;;;;;11.30;3.05;;;;;;;;;;5096538;28;20031;-88
2022/09/10 05:15:23;;;;;;;12.63;3.40;;;;;;;;;;5093607;28;20442;-93
2022/09/10 05:17:49;;;;;;;12.45;3.35;;;;;;;;;;5093383;28;20067;-95
2022/09/10 05:20:15;;;;;;;13.95;4.40;;;;;;;;;;5098437;28;20024;-92
2022/09/10 05:22:41;;;;;;;20.45;4.03;;;14.40;99.90;;;;;;5114936;28;20071;-87
2022/09/10 05:25:09;;;;;;;8.55;3.25;;;14.50;99.90;;;;;;5115016;28;20016;-88
2022/09/10 05:27:35;;;;;;;10.52;3.50;;;14.40;99.90;;;;;;5115610;28;20029;-92
2022/09/10 05:30:01;;;;;;;10.70;3.33;;;;;;;;;;5109141;28;20032;-95
2022/09/10 05:32:28;;;;;;;13.15;3.60;;;;;;;;;;5100020;28;20024;-94
2022/09/10 05:34:54;;;;;;;12.68;3.58;;;;;;;;;;5094989;28;20051;-94
2022/09/10 05:37:21;;;;;;;11.25;3.72;;;14.30;99.90;;;;;;5094794;28;20032;-94
2022/09/10 05:39:47;;;;;;;13.10;3.53;;;;;;;;;;5093555;28;20095;-94
2022/09/10 05:42:13;;;;;;;12.73;3.58;;;;;;;;;;5098522;28;20449;-96
2022/09/10 05:44:40;;;;;;;7.38;3.22;;;;;;;;;;5095831;28;20387;-96
2022/09/10 05:47:06;;;;;;;16.95;4.22;;;;;;;;;;5095107;28;20016;-88
2022/09/10 05:49:32;;;;;;;14.80;3.63;;;;;;;;;;5095286;28;20034;-95
2022/09/10 05:51:58;;;;;;;12.15;3.67;;;;;;;;;;5095774;28;20430;-96
2022/09/10 05:54:25;;;;;;;10.73;4.03;;;;;;;;;;5095170;28;20050;-94
2022/09/10 05:56:51;;;;;;;11.90;3.78;;;;;;;;;;5093925;28;20026;-93
2022/09/10 05:59:17;;;;;;;11.02;4.00;;;;;;;;;;5092075;28;20161;-96
2022/09/10 06:01:43;;;;;;;11.23;3.58;;;;;;;;;;5093162;28;20089;-93
2022/09/10 06:04:10;;;;;;;17.55;4.63;;;14.50;99.90;;;;;;5105458;28;20050;-94
2022/09/10 06:06:36;;;;;;;8.38;3.40;;;;;;;;;;5106877;28;20035;-95
2022/09/10 06:09:02;;;;;;;14.80;3.53;;;;;;;;;;5109004;28;20016;-95
2022/09/10 06:11:28;;;;;;;13.48;3.92;;;;;;;;;;5114334;28;20090;-95
2022/09/10 06:13:54;;;;;;;10.50;3.78;;;14.50;99.90;;;;;;5110844;28;20038;-95
2022/09/10 06:16:19;;;;;;;14.60;3.63;;;14.40;99.90;;;;;;5107344;28;20021;-94
2022/09/10 06:18:45;;;;;;;12.70;3.92;;;14.40;99.90;;;;;;5100280;28;20119;-93
2022/09/10 06:21:14;;;;;;;11.90;3.63;;;14.40;99.90;;;;;;5097737;28;20024;-96
2022/09/10 06:23:40;;;;;;;10.15;3.90;;;;;;;;;;5095142;28;20016;-94
2022/09/10 06:26:17;;;;;;;12.77;3.83;;;14.60;99.90;;;;;;5092657;28;20024;-94
2022/09/10 06:28:43;;;;;;;15.15;4.03;;;;;;;;;;5093102;28;20111;-89
2022/09/10 06:31:13;;;;;;;15.77;4.75;;;;;;;;;;5093324;28;20494;-88
2022/09/10 06:33:39;;;;;;;20.60;4.78;;;;;;;;;;5100898;28;20130;-94
2022/09/10 06:36:05;;;;;;;16.67;4.25;;;14.80;99.90;;;;;;5101798;28;20024;-93
2022/09/10 06:38:37;;;;;;;21.15;4.35;;;15.10;99.90;;;;;;5095273;28;20099;-94
2022/09/10 06:41:05;;;;;;;18.95;4.72;;;15.00;99.90;;;;;;5092447;28;20089;-90
2022/09/10 06:43:35;;;;;;;18.27;5.35;;;15.10;99.90;;;;;;5091608;28;20442;-94
2022/09/10 06:46:04;;;;;;;14.20;4.95;;;;;;;;;;5093687;28;20032;-92
2022/09/10 06:48:30;;;;;;;15.18;5.28;;;14.90;99.90;;;;;;5099213;28;20069;-88
2022/09/10 06:50:56;;;;;;;12.52;4.97;;;;;;;;;;5095771;28;20032;-91
2022/09/10 06:53:23;;;;;;;13.45;4.82;;;14.80;99.90;;;;;;5092617;28;20514;-94
2022/09/10 06:55:53;;;;;;;12.93;4.60;;;14.90;99.90;;;;;;5093586;28;20523;-92
2022/09/10 06:58:20;;;;;;;13.18;4.72;;;14.90;99.90;;;;;;5094674;28;20058;-95
2022/09/10 07:00:49;;;;;;;15.95;5.07;;;15.00;99.90;;;;;;5091570;28;20424;-93
2022/09/10 07:03:17;;;;;;;20.73;5.90;;;15.10;99.90;;;;;;5091555;28;20013;-87
2022/09/10 07:05:44;;;;;;;16.80;5.60;;;15.40;99.90;;;;;;5091911;28;20024;-91
2022/09/10 07:08:19;;;;;;;12.55;5.00;;;15.20;99.90;;;;;;5091631;28;20024;-92
2022/09/10 07:10:45;;;;;;;16.98;5.15;;;;;;;;;;5091171;28;20059;-88
2022/09/10 07:13:12;;;;;;;15.85;5.72;;;15.10;99.90;;;;;;5093110;28;20383;-93
2022/09/10 07:15:45;;;;;;;16.35;5.55;;;15.10;99.90;;;;;;5092685;28;20411;-93
2022/09/10 07:18:15;;;;;;;19.63;5.60;;;15.50;99.90;;;;;;5092022;28;20012;-86
2022/09/10 07:20:45;;;;;;;15.85;5.68;;;15.30;99.90;;;;;;5078896;28;20036;-93
2022/09/10 07:23:17;;;;;;;20.27;6.07;;;15.30;99.90;;;;;;5095692;28;20021;-92
2022/09/10 07:25:43;;;;;;;17.85;5.97;;;;;;;;;;5092941;28;20091;-88
2022/09/10 07:28:14;;;;;;;13.93;6.13;;;15.40;99.90;;;;;;5089849;28;20020;-89
2022/09/10 07:30:41;;;;;;;16.55;6.03;;;15.20;99.90;;;;;;5092520;28;20035;-87
2022/09/10 07:33:07;;;;;;;17.60;6.05;;;;;;;;;;5087742;28;20024;-89
2022/09/10 07:35:37;;;;;;;19.17;6.10;;;15.30;99.90;;;;;;5090154;28;20027;-90
2022/09/10 07:38:05;;;;;;;24.73;6.93;;;15.50;99.90;;;;;;5091966;28;20043;-89
2022/09/10 07:40:32;;;;;;;13.07;5.50;;;;;;;;;;5090310;28;20115;-93
2022/09/10 07:42:58;;;;;;;17.88;6.85;;;;;;;;;;5089414;28;20020;-86
2022/09/10 07:45:25;;;;;;;19.73;6.65;;;15.40;99.90;;;;;;5096272;28;20032;-91
2022/09/10 07:47:51;;;;;;;21.35;6.28;;;;;;;;;;5087809;28;20028;-95
2022/09/10 07:50:18;;;;;;;14.40;6.13;;;;;;;;;;5089644;28;20028;-89
2022/09/10 07:52:46;;;;;;;17.23;6.25;;;;;;;;;;5094215;28;20384;-93
2022/09/10 07:55:12;;;;;;;20.95;6.25;;;;;;;;;;5086389;28;20526;-94
2022/09/10 07:57:40;;;;;;;18.05;6.32;;;15.70;99.90;;;;;;5099666;28;20020;-95
2022/09/10 08:00:13;;;;;;;19.77;5.88;;;16.70;99.90;;;;;;5098460;28;20032;-86
2022/09/10 08:02:41;;;;;;;17.15;6.35;;;;;;;;;;5097001;28;20050;-87
2022/09/10 08:05:09;;;;;;;26.30;6.47;;;;;;;;;;5106528;28;20012;-88
2022/09/10 08:07:35;;;;;;;16.80;5.83;;;;;;;;;;5111825;28;20008;-92
2022/09/10 08:10:01;;;;;;;18.30;6.55;;;;;;;;;;5109886;28;20025;-87
2022/09/10 08:12:28;;;;;;;16.23;6.07;;;;;;;;;;5098388;28;20004;-91
2022/09/10 08:14:56;;;;;;;19.92;6.50;;;;;;;;;;5095576;28;20056;-87
2022/09/10 08:17:22;;;;;;;23.48;6.82;;;;;;;;;;5105435;28;20021;-88
2022/09/10 08:19:49;;;;;;;24.40;6.70;;;;;;;;;;5087118;28;20024;-91
2022/09/10 08:22:15;;;;;;;20.42;7.00;;;15.90;99.90;;;;;;5095501;28;20024;-87
2022/09/10 08:24:42;;;;;;;17.67;5.90;;;;;;;;;;5081556;28;20036;-88
2022/09/10 08:27:10;;;;;;;21.42;5.95;;;;;;;;;;5093668;28;20035;-95
2022/09/10 08:29:42;;;;;;;12.80;5.60;;;16.10;99.90;;;;;;5101486;28;20061;-87
2022/09/10 08:32:11;;;;;;;13.70;5.75;;;16.20;99.90;;;;;;5094142;28;20036;-88
2022/09/10 08:34:37;;;;;;;15.13;5.85;;;;;;;;;;5093772;28;20460;-95
2022/09/10 08:37:03;;;;;;;16.33;6.68;;;;;;;;;;5100849;28;20089;-92
2022/09/10 08:39:33;;;;;;;13.48;6.20;;;;;;;;;;5096529;28;20052;-94
2022/09/10 08:42:08;;;;;;;18.58;6.15;;;16.60;99.90;;;;;;5096223;28;20048;-94
2022/09/10 08:44:58;;;;;;;16.17;5.95;;;16.60;99.90;;;;;;5097165;28;20045;-86
2022/09/10 08:47:37;;;;;;;19.40;5.80;;;16.50;99.90;;;;;;5092074;28;20028;-87
2022/09/10 08:50:12;;;;;;;;;;;16.50;99.90;;;;;;5087362;28;20101;-88
2022/09/10 08:52:49;;;;;;;16.08;5.45;;;16.50;99.90;;;;;;5092405;28;19904;-90
2022/09/10 08:55:24;;;;;;;17.98;6.88;;;16.50;99.90;;;;;;5089947;28;20024;-90
2022/09/10 08:58:01;;;;;;;17.85;6.82;;;16.80;99.90;;;;;;5092101;28;20085;-87
2022/09/10 09:00:32;;;;;;;16.60;6.60;;;16.80;99.90;;;;;;5089324;28;20144;-90
2022/09/10 09:03:21;;;;;;;19.95;6.78;;;16.90;99.90;;;;;;5087957;28;20286;-89
2022/09/10 09:05:49;;;;;;;17.02;6.00;;;16.90;99.90;;;;;;5090989;28;20028;-92
2022/09/10 09:08:26;;;;;;;14.55;6.25;;;16.80;99.90;;;;;;5092699;28;20540;-86
2022/09/10 09:10:58;;;;;;;14.32;5.60;;;16.80;99.90;;;;;;5094774;28;20036;-90
2022/09/10 09:13:54;;;;;;;13.45;5.85;;;17.00;99.90;;;;;;5092324;28;20020;-94
2022/09/10 09:16:37;;;;;;;15.30;6.00;;;17.10;99.90;;;;;;5089484;28;20507;-86
2022/09/10 09:19:33;;;;;;;20.80;6.72;;;19.80;99.90;;;;;;5099005;28;20023;-89
2022/09/10 09:22:30;;;;;;;18.00;5.28;;;17.10;99.90;;;;;;5090647;28;20047;-91
2022/09/10 09:25:40;;;;;;;36.05;10.38;;;17.00;99.90;;;;;;5090082;28;20048;-88
2022/09/10 09:28:17;;;;;;;166.98;69.55;;;17.50;99.90;;;;;;5050332;28;20043;-90
2022/09/10 09:35:01;;;;;;;120.38;42.72;;;17.40;99.90;;;;;;4968238;28;20034;-92
2022/09/10 09:37:36;;;;;;;34.72;14.50;;;17.40;99.90;;;;;;5007660;28;20078;-89
2022/09/10 09:40:38;;;;;;;16.58;6.50;;;17.40;99.90;;;;;;5087780;28;20039;-91
2022/09/10 09:43:28;;;;;;;65.60;29.30;;;17.50;99.90;;;;;;5095228;28;20122;-90
2022/09/10 09:46:23;;;;;;;165.40;70.97;;;17.50;99.90;;;;;;5080054;28;20029;-92
2022/09/10 09:48:58;;;;;;;14.80;6.00;;;17.40;99.90;;;;;;5088772;28;20507;-90
2022/09/10 09:51:26;;;;;;;93.28;40.53;;;;;;;;;;5087455;28;20031;-89
2022/09/10 09:54:10;;;;;;;99.75;40.72;;;17.60;99.90;;;;;;5087826;28;20027;-90
2022/09/10 09:56:48;;;;;;;24.98;12.32;;;17.50;99.90;;;;;;5085682;28;20047;-91
2022/09/10 09:59:34;;;;;;;78.93;40.00;;;17.40;99.90;;;;;;5085351;28;20442;-89
2022/09/10 10:02:17;;;;;;;45.58;25.13;;;17.60;99.90;;;;;;5085624;28;20032;-91
2022/09/10 10:05:22;;;;;;;20.77;11.45;;;17.50;99.90;;;;;;5086571;28;20035;-85
2022/09/10 10:07:49;;;;;;;12.27;7.78;;;17.80;99.90;;;;;;5088278;28;20086;-87
2022/09/10 10:10:26;;;;;;;13.15;8.55;;;17.90;99.90;;;;;;5090167;28;20028;-88
2022/09/10 10:12:54;;;;;;;14.52;6.97;;;17.90;99.90;;;;;;5088758;28;20043;-91
2022/09/10 10:15:37;;;;;;;27.88;10.05;;;17.80;99.90;;;;;;5088455;28;20454;-86
2022/09/10 10:18:20;;;;;;;13.60;6.57;;;17.90;99.90;;;;;;5087220;28;20012;-91
2022/09/10 10:20:48;;;;;;;12.70;4.47;;;17.50;99.90;;;;;;5089468;28;20040;-91
2022/09/10 10:23:37;;;;;;;13.45;4.60;;;17.90;99.90;;;;;;5085196;28;20755;-92
2022/09/10 10:26:29;;;;;;;9.77;4.75;;;18.10;99.90;;;;;;5089073;28;20024;-87
2022/09/10 10:29:02;;;;;;;7.78;3.83;;;18.10;99.90;;;;;;5071279;28;20103;-89
2022/09/10 10:31:52;;;;;;;11.65;3.78;;;18.10;99.90;;;;;;5070823;28;20434;-94
2022/09/10 10:34:46;;;;;;;9.70;3.70;;;18.00;99.90;;;;;;5089969;28;20392;-94
2022/09/10 10:37:27;;;;;;;9.40;3.45;;;17.00;99.90;;;;;;5088060;28;20513;-95
2022/09/10 10:40:02;;;;;;;9.55;3.88;;;17.60;99.90;;;;;;5091521;28;20038;-89
2022/09/10 10:43:12;;;;;;;15.18;3.78;;;18.70;99.90;;;;;;5108972;28;20062;-93
2022/09/10 10:46:08;;;;;;;6.80;3.95;;;18.80;99.90;;;;;;5063045;28;20085;-94
2022/09/10 10:49:21;;;;;;;11.90;3.95;;;18.50;99.90;;;;;;5079353;28;20012;-93
2022/09/10 10:52:04;;;;;;;9.40;2.88;;;18.50;99.90;;;;;;5062983;28;20047;-94
2022/09/10 10:54:56;;;;;;;9.88;3.75;;;18.50;99.90;;;;;;5059648;28;20055;-94
2022/09/10 10:57:42;;;;;;;8.55;3.53;;;19.20;99.90;;;;;;5025324;28;20037;-94
2022/09/10 11:00:27;;;;;;;11.02;3.30;;;18.40;99.90;;;;;;5069022;28;20110;-93
2022/09/10 11:03:39;;;;;;;;;;;;;;;;;;;;;
2022/09/10 11:06:13;;;;;;;18.70;7.50;;;17.70;99.90;;;;;;5063185;28;20845;-90
2022/09/10 11:09:00;;;;;;;16.05;5.25;;;18.00;99.90;;;;;;5066639;28;20731;-93
2022/09/10 11:11:51;;;;;;;8.43;3.13;;;18.60;99.90;;;;;;5067766;28;20033;-93
2022/09/10 11:14:50;;;;;;;9.27;3.22;;;18.50;99.90;;;;;;5067699;28;20242;-89
2022/09/10 11:17:52;;;;;;;7.32;3.33;;;18.50;99.90;;;;;;5064049;28;20059;-93
2022/09/10 11:20:45;;;;;;;6.55;3.55;;;18.90;99.90;;;;;;5094199;28;20032;-93
2022/09/10 11:23:48;;;;;;;9.38;4.07;;;18.80;99.90;;;;;;5090458;28;20092;-95
2022/09/10 11:26:54;;;;;;;8.32;3.40;;;19.00;99.90;;;;;;5090705;28;20082;-90
2022/09/10 11:29:57;;;;;;;9.68;3.08;;;18.90;99.90;;;;;;5110004;28;20016;-88
2022/09/10 11:32:50;;;;;;;12.15;3.97;;;19.10;99.90;;;;;;5099161;28;20217;-93
2022/09/10 11:36:01;;;;;;;11.40;3.45;;;19.00;99.90;;;;;;5108455;28;20008;-93
2022/09/10 11:38:51;;;;;;;14.43;4.38;;;18.90;99.90;;;;;;5106888;28;20028;-88
2022/09/10 11:41:17;;;;;;;12.05;3.30;;;;;;;;;;5104008;28;20036;-95
2022/09/10 11:44:06;;;;;;;11.25;3.58;;;19.40;99.90;;;;;;5096572;28;20084;-90
2022/09/10 11:46:42;;;;;;;13.85;4.78;;;19.90;99.90;;;;;;5091317;28;20039;-95
2022/09/10 11:49:21;;;;;;;8.52;2.88;;;19.50;99.90;;;;;;5087933;28;20020;-94
2022/09/10 11:51:50;;;;;;;5.40;2.25;;;19.70;99.90;;;;;;5097641;28;20468;-91
2022/09/10 11:54:42;;;;;;;10.75;2.65;;;19.40;99.90;;;;;;5092092;28;20073;-90
2022/09/10 11:57:29;;;;;;;6.78;2.40;;;20.10;99.90;;;;;;5086716;28;20028;-92
2022/09/10 12:00:06;;;;;;;7.38;2.10;;;19.80;99.90;;;;;;5088631;28;20422;-93
2022/09/10 12:02:44;;;;;;;8.02;2.20;;;19.80;99.90;;;;;;5086320;28;20032;-92
2022/09/10 12:05:27;;;;;;;6.40;2.47;;;19.80;99.90;;;;;;5086743;28;20632;-88
2022/09/10 12:08:21;;;;;;;;;;;;;;;;;;;;;
2022/09/10 12:11:07;;;;;;;7.78;2.13;;;19.80;99.90;;;;;;5087870;28;20024;-94
2022/09/10 12:13:38;;;;;;;9.20;2.20;;;20.30;99.90;;;;;;5089519;28;20111;-91
2022/09/10 12:16:30;;;;;;;6.00;2.00;;;20.20;99.90;;;;;;5088340;28;20467;-90
2022/09/10 12:18:57;;;;;;;6.88;2.22;;;20.10;99.90;;;;;;5062251;28;20032;-92
2022/09/10 12:21:26;;;;;;;8.27;2.10;;;20.20;99.90;;;;;;5090042;28;20055;-94
2022/09/10 12:24:01;;;;;;;10.25;1.90;;;20.20;99.90;;;;;;5088998;28;20020;-89
2022/09/10 12:26:27;;;;;;;6.55;2.50;;;;;;;;;;5087587;28;20048;-96
2022/09/10 12:28:59;;;;;;;3.97;1.65;;;20.20;99.90;;;;;;5093790;28;20040;-93
2022/09/10 12:32:14;;;;;;;3.95;1.77;;;20.30;99.90;;;;;;5094231;28;20027;-90
2022/09/10 12:34:41;;;;;;;7.35;2.00;;;;;;;;;;5084525;28;20272;-89
2022/09/10 12:37:26;;;;;;;6.60;2.08;;;20.40;99.90;;;;;;5093942;28;20039;-89
2022/09/10 12:40:39;;;;;;;13.07;2.17;;;20.40;99.90;;;;;;5092729;28;20107;-90
2022/09/10 12:43:39;;;;;;;7.43;1.83;;;19.30;99.90;;;;;;5083220;28;20447;-89
2022/09/10 12:46:08;;;;;;;5.32;1.70;;;21.20;99.90;;;;;;5097011;28;20403;-90
2022/09/10 13:07:18;;;;;;;;;;;;;;;;;;;;;
2022/09/10 13:11:03;;;;;;;;;;;;;;;;;;;;;
2022/09/10 13:14:29;;;;;;;;;;;;;;;;;;;;;
2022/09/10 13:20:58;;;;;;;;;;;;;;;;;;;;;
2022/09/10 13:24:23;;;;;;;6.68;1.80;;;20.50;99.90;;;;;;4936913;29;20147;-92
2022/09/10 13:51:39;;;;;;;;;;;;;;;;;;;;;
2022/09/10 14:36:53;;;;;;;;;;;;;;;;;;;;;
2022/09/10 14:39:46;;;;;;;5.50;1.50;;;22.60;99.90;;;;;;4801484;29;20054;-90
2022/09/10 14:42:43;;;;;;;3.70;1.30;;;22.00;99.90;;;;;;4798395;29;20047;-91
2022/09/10 14:45:57;;;;;;;2.53;1.30;;;21.90;99.90;;;;;;4839536;29;20427;-93
2022/09/10 14:49:00;;;;;;;3.10;1.40;;;22.20;99.90;;;;;;4858653;29;20085;-91
2022/09/10 14:51:27;;;;;;;3.83;1.50;;;21.20;99.90;;;;;;4913251;29;20042;-90
2022/09/10 14:53:56;;;;;;;3.70;1.30;;;21.90;99.90;;;;;;4914393;29;20472;-90
2022/09/10 14:56:25;;;;;;;2.90;1.40;;;;;;;;;;4940237;28;20470;-91
2022/09/10 14:59:20;;;;;;;3.85;1.40;;;22.00;99.90;;;;;;5024031;28;20067;-92
2022/09/10 15:01:50;;;;;;;4.78;1.77;;;;;;;;;;5069958;28;20285;-92
2022/09/10 15:04:29;;;;;;;7.40;1.60;;;21.80;99.90;;;;;;5070733;28;20028;-91
2022/09/10 15:10:17;;;;;;;5.47;1.50;;;;;;;;;;5021678;28;20067;-90
2022/09/10 15:15:52;;;;;;;;;;;;;;;;;;;;;
2022/09/10 15:39:36;;;;;;;21.23;2.60;;;;;;;;;;4770495;29;20050;-93
2022/09/10 15:46:18;;;;;;;23.08;2.40;;;22.60;99.90;;;;;;4816763;29;20096;-94
2022/09/10 15:49:13;;;;;;;3.78;1.58;;;22.60;99.90;;;;;;4824553;29;20442;-93
2022/09/10 15:51:44;;;;;;;5.00;1.40;;;22.30;99.90;;;;;;4830015;29;20045;-91
2022/09/10 15:54:13;;;;;;;3.85;1.48;;;;;;;;;;4846434;29;20045;-91
2022/09/10 15:56:44;;;;;;;6.28;1.65;;;22.50;99.90;;;;;;4928581;28;20037;-91
2022/09/10 15:59:27;;;;;;;3.80;1.83;;;22.60;99.90;;;;;;5029890;28;20050;-88
2022/09/10 16:02:23;;;;;;;;;;;;;;;;;;;;;
2022/09/10 16:04:52;;;;;;;2.65;1.35;;;;;;;;;;5071257;28;20027;-90
2022/09/10 16:07:19;;;;;;;5.93;1.50;;;;;;;;;;5086692;28;20032;-90
2022/09/10 16:09:49;;;;;;;4.70;1.70;;;22.40;99.90;;;;;;5090381;28;20032;-91
2022/09/10 16:12:55;;;;;;;5.45;1.60;;;22.40;99.90;;;;;;5092683;28;20114;-91
2022/09/10 16:15:24;;;;;;;4.15;1.33;;;;;;;;;;5089534;28;20105;-89